sensor_id;sensor_type;location;lat;lon;timestamp;temperature;humidity
51661;DHT22;37741;49.748;8.490;2023-04-15T00:01:03;10.50;67.10
51661;DHT22;37741;49.748;8.490;2023-04-15T00:03:30;10.50;67.20
51661;DHT22;37741;49.748;8.490;2023-04-15T00:05:57;10.50;67.20
51661;DHT22;37741;49.748;8.490;2023-04-15T00:08:23;10.40;67.20
51661;DHT22;37741;49.748;8.490;2023-04-15T00:10:48;10.40;67.20
51661;DHT22;37741;49.748;8.490;2023-04-15T00:13:15;10.40;68.00
51661;DHT22;37741;49.748;8.490;2023-04-15T00:15:40;10.40;67.30
51661;DHT22;37741;49.748;8.490;2023-04-15T00:18:07;10.30;67.40
51661;DHT22;37741;49.748;8.490;2023-04-15T00:20:33;10.30;67.50
51661;DHT22;37741;49.748;8.490;2023-04-15T00:23:00;10.30;67.50
51661;DHT22;37741;49.748;8.490;2023-04-15T00:25:26;10.20;67.60
51661;DHT22;37741;49.748;8.490;2023-04-15T00:27:52;10.20;67.50
51661;DHT22;37741;49.748;8.490;2023-04-15T00:30:18;10.20;67.60
51661;DHT22;37741;49.748;8.490;2023-04-15T00:32:44;10.20;67.60
51661;DHT22;37741;49.748;8.490;2023-04-15T00:35:11;10.10;67.60
51661;DHT22;37741;49.748;8.490;2023-04-15T00:37:36;10.10;67.60
51661;DHT22;37741;49.748;8.490;2023-04-15T00:40:02;10.10;67.70
51661;DHT22;37741;49.748;8.490;2023-04-15T00:42:30;10.00;67.70
51661;DHT22;37741;49.748;8.490;2023-04-15T00:44:56;10.00;67.80
51661;DHT22;37741;49.748;8.490;2023-04-15T00:47:22;10.00;67.90
51661;DHT22;37741;49.748;8.490;2023-04-15T00:49:47;10.00;67.90
51661;DHT22;37741;49.748;8.490;2023-04-15T00:52:13;9.90;67.90
51661;DHT22;37741;49.748;8.490;2023-04-15T00:54:39;9.90;68.00
51661;DHT22;37741;49.748;8.490;2023-04-15T00:57:05;9.90;68.00
51661;DHT22;37741;49.748;8.490;2023-04-15T00:59:32;9.90;68.10
51661;DHT22;37741;49.748;8.490;2023-04-15T01:01:58;9.80;68.10
51661;DHT22;37741;49.748;8.490;2023-04-15T01:04:24;9.80;68.00
51661;DHT22;37741;49.748;8.490;2023-04-15T01:06:50;9.80;68.10
51661;DHT22;37741;49.748;8.490;2023-04-15T01:09:16;9.80;68.20
51661;DHT22;37741;49.748;8.490;2023-04-15T01:11:42;9.70;68.80
51661;DHT22;37741;49.748;8.490;2023-04-15T01:14:09;9.70;68.20
51661;DHT22;37741;49.748;8.490;2023-04-15T01:16:36;9.70;68.30
51661;DHT22;37741;49.748;8.490;2023-04-15T01:19:06;9.60;68.30
51661;DHT22;37741;49.748;8.490;2023-04-15T01:21:36;9.70;68.40
51661;DHT22;37741;49.748;8.490;2023-04-15T01:24:06;9.60;68.40
51661;DHT22;37741;49.748;8.490;2023-04-15T01:26:33;9.60;68.50
51661;DHT22;37741;49.748;8.490;2023-04-15T01:28:58;9.50;68.40
51661;DHT22;37741;49.748;8.490;2023-04-15T01:31:24;9.50;68.50
51661;DHT22;37741;49.748;8.490;2023-04-15T01:33:50;9.50;68.50
51661;DHT22;37741;49.748;8.490;2023-04-15T01:36:15;9.50;68.90
51661;DHT22;37741;49.748;8.490;2023-04-15T01:38:41;9.50;68.60
51661;DHT22;37741;49.748;8.490;2023-04-15T01:41:07;9.50;68.70
51661;DHT22;37741;49.748;8.490;2023-04-15T01:43:34;9.40;68.70
51661;DHT22;37741;49.748;8.490;2023-04-15T01:46:00;9.40;68.80
51661;DHT22;37741;49.748;8.490;2023-04-15T01:48:26;9.40;68.80
51661;DHT22;37741;49.748;8.490;2023-04-15T01:50:53;9.40;68.80
51661;DHT22;37741;49.748;8.490;2023-04-15T01:53:18;9.40;68.80
51661;DHT22;37741;49.748;8.490;2023-04-15T01:55:45;9.30;68.80
51661;DHT22;37741;49.748;8.490;2023-04-15T01:58:11;9.30;68.80
51661;DHT22;37741;49.748;8.490;2023-04-15T02:00:36;9.20;68.70
51661;DHT22;37741;49.748;8.490;2023-04-15T02:03:02;9.20;68.80
51661;DHT22;37741;49.748;8.490;2023-04-15T02:05:28;9.20;68.80
51661;DHT22;37741;49.748;8.490;2023-04-15T02:07:54;9.20;68.80
51661;DHT22;37741;49.748;8.490;2023-04-15T02:10:19;9.20;68.80
51661;DHT22;37741;49.748;8.490;2023-04-15T02:12:45;9.10;68.80
51661;DHT22;37741;49.748;8.490;2023-04-15T02:15:11;9.10;68.80
51661;DHT22;37741;49.748;8.490;2023-04-15T02:17:36;9.10;68.80
51661;DHT22;37741;49.748;8.490;2023-04-15T02:20:03;9.10;68.80
51661;DHT22;37741;49.748;8.490;2023-04-15T02:22:33;9.00;68.80
51661;DHT22;37741;49.748;8.490;2023-04-15T02:24:59;9.00;68.80
51661;DHT22;37741;49.748;8.490;2023-04-15T02:27:24;9.00;68.80
51661;DHT22;37741;49.748;8.490;2023-04-15T02:29:50;9.00;68.80
51661;DHT22;37741;49.748;8.490;2023-04-15T02:32:16;9.00;68.90
51661;DHT22;37741;49.748;8.490;2023-04-15T02:34:42;8.90;68.80
51661;DHT22;37741;49.748;8.490;2023-04-15T02:37:11;8.90;68.80
51661;DHT22;37741;49.748;8.490;2023-04-15T02:39:37;8.90;68.80
51661;DHT22;37741;49.748;8.490;2023-04-15T02:42:04;8.90;68.80
51661;DHT22;37741;49.748;8.490;2023-04-15T02:44:30;8.90;68.90
51661;DHT22;37741;49.748;8.490;2023-04-15T02:46:57;8.80;68.90
51661;DHT22;37741;49.748;8.490;2023-04-15T02:49:23;8.80;68.90
51661;DHT22;37741;49.748;8.490;2023-04-15T02:51:49;8.80;68.90
51661;DHT22;37741;49.748;8.490;2023-04-15T02:54:19;8.80;68.90
51661;DHT22;37741;49.748;8.490;2023-04-15T02:56:45;8.70;68.90
51661;DHT22;37741;49.748;8.490;2023-04-15T02:59:13;8.70;68.90
51661;DHT22;37741;49.748;8.490;2023-04-15T03:01:39;8.70;69.00
51661;DHT22;37741;49.748;8.490;2023-04-15T03:04:04;8.70;69.00
51661;DHT22;37741;49.748;8.490;2023-04-15T03:06:32;8.70;69.00
51661;DHT22;37741;49.748;8.490;2023-04-15T03:08:57;8.70;69.70
51661;DHT22;37741;49.748;8.490;2023-04-15T03:11:24;8.60;69.00
51661;DHT22;37741;49.748;8.490;2023-04-15T03:13:51;8.60;69.00
51661;DHT22;37741;49.748;8.490;2023-04-15T03:16:17;8.60;69.10
51661;DHT22;37741;49.748;8.490;2023-04-15T03:18:42;8.60;69.10
51661;DHT22;37741;49.748;8.490;2023-04-15T03:21:08;8.60;69.10
51661;DHT22;37741;49.748;8.490;2023-04-15T03:23:33;8.50;69.00
51661;DHT22;37741;49.748;8.490;2023-04-15T03:26:03;8.50;69.10
51661;DHT22;37741;49.748;8.490;2023-04-15T03:28:29;8.50;69.10
51661;DHT22;37741;49.748;8.490;2023-04-15T03:30:55;8.50;69.20
51661;DHT22;37741;49.748;8.490;2023-04-15T03:33:21;8.40;69.10
51661;DHT22;37741;49.748;8.490;2023-04-15T03:35:46;8.40;69.10
51661;DHT22;37741;49.748;8.490;2023-04-15T03:38:12;8.40;69.80
51661;DHT22;37741;49.748;8.490;2023-04-15T03:40:40;8.40;69.30
51661;DHT22;37741;49.748;8.490;2023-04-15T03:43:06;8.30;69.20
51661;DHT22;37741;49.748;8.490;2023-04-15T03:45:32;8.40;69.30
51661;DHT22;37741;49.748;8.490;2023-04-15T03:47:58;8.30;69.30
51661;DHT22;37741;49.748;8.490;2023-04-15T03:50:23;8.30;69.20
51661;DHT22;37741;49.748;8.490;2023-04-15T03:52:49;8.30;69.30
51661;DHT22;37741;49.748;8.490;2023-04-15T03:55:15;8.30;69.30
51661;DHT22;37741;49.748;8.490;2023-04-15T03:57:40;8.30;69.30
51661;DHT22;37741;49.748;8.490;2023-04-15T04:00:07;8.30;69.40
51661;DHT22;37741;49.748;8.490;2023-04-15T04:02:36;8.20;69.30
51661;DHT22;37741;49.748;8.490;2023-04-15T04:05:01;8.20;69.50
51661;DHT22;37741;49.748;8.490;2023-04-15T04:07:27;8.20;69.50
51661;DHT22;37741;49.748;8.490;2023-04-15T04:09:53;8.20;69.60
51661;DHT22;37741;49.748;8.490;2023-04-15T04:12:18;8.10;69.40
51661;DHT22;37741;49.748;8.490;2023-04-15T04:14:44;8.20;69.50
51661;DHT22;37741;49.748;8.490;2023-04-15T04:17:10;8.10;69.50
51661;DHT22;37741;49.748;8.490;2023-04-15T04:19:36;8.10;69.60
51661;DHT22;37741;49.748;8.490;2023-04-15T04:22:01;8.10;69.60
51661;DHT22;37741;49.748;8.490;2023-04-15T04:24:27;8.10;69.70
51661;DHT22;37741;49.748;8.490;2023-04-15T04:26:52;8.00;69.60
51661;DHT22;37741;49.748;8.490;2023-04-15T04:29:18;8.00;69.50
51661;DHT22;37741;49.748;8.490;2023-04-15T04:31:44;8.00;69.60
51661;DHT22;37741;49.748;8.490;2023-04-15T04:34:10;8.00;69.60
51661;DHT22;37741;49.748;8.490;2023-04-15T04:36:35;8.00;69.60
51661;DHT22;37741;49.748;8.490;2023-04-15T04:39:01;8.00;69.60
51661;DHT22;37741;49.748;8.490;2023-04-15T04:41:27;7.90;69.70
51661;DHT22;37741;49.748;8.490;2023-04-15T04:43:52;7.90;69.50
51661;DHT22;37741;49.748;8.490;2023-04-15T04:46:18;7.90;69.70
51661;DHT22;37741;49.748;8.490;2023-04-15T04:48:43;7.90;69.60
51661;DHT22;37741;49.748;8.490;2023-04-15T04:51:10;7.90;69.70
51661;DHT22;37741;49.748;8.490;2023-04-15T04:53:36;7.90;69.80
51661;DHT22;37741;49.748;8.490;2023-04-15T04:56:02;7.80;69.70
51661;DHT22;37741;49.748;8.490;2023-04-15T04:58:28;7.80;69.70
51661;DHT22;37741;49.748;8.490;2023-04-15T05:00:53;7.80;69.90
51661;DHT22;37741;49.748;8.490;2023-04-15T05:03:19;7.80;69.80
51661;DHT22;37741;49.748;8.490;2023-04-15T05:05:44;7.70;69.80
51661;DHT22;37741;49.748;8.490;2023-04-15T05:08:10;7.70;69.80
51661;DHT22;37741;49.748;8.490;2023-04-15T05:10:36;7.70;69.80
51661;DHT22;37741;49.748;8.490;2023-04-15T05:13:02;7.70;69.90
51661;DHT22;37741;49.748;8.490;2023-04-15T05:15:27;7.70;69.90
51661;DHT22;37741;49.748;8.490;2023-04-15T05:17:53;7.70;69.90
51661;DHT22;37741;49.748;8.490;2023-04-15T05:20:19;7.70;70.00
51661;DHT22;37741;49.748;8.490;2023-04-15T05:22:45;7.60;69.90
51661;DHT22;37741;49.748;8.490;2023-04-15T05:25:10;7.60;70.00
51661;DHT22;37741;49.748;8.490;2023-04-15T05:27:36;7.60;70.00
51661;DHT22;37741;49.748;8.490;2023-04-15T05:30:02;7.60;70.00
51661;DHT22;37741;49.748;8.490;2023-04-15T05:32:28;7.60;70.00
51661;DHT22;37741;49.748;8.490;2023-04-15T05:34:53;7.50;70.10
51661;DHT22;37741;49.748;8.490;2023-04-15T05:37:19;7.60;70.10
51661;DHT22;37741;49.748;8.490;2023-04-15T05:39:47;7.60;70.10
51661;DHT22;37741;49.748;8.490;2023-04-15T05:42:13;7.50;70.10
51661;DHT22;37741;49.748;8.490;2023-04-15T05:44:39;7.50;70.20
51661;DHT22;37741;49.748;8.490;2023-04-15T05:47:04;7.50;70.20
51661;DHT22;37741;49.748;8.490;2023-04-15T05:49:31;7.50;70.20
51661;DHT22;37741;49.748;8.490;2023-04-15T05:51:57;7.50;70.20
51661;DHT22;37741;49.748;8.490;2023-04-15T05:54:22;7.50;70.20
51661;DHT22;37741;49.748;8.490;2023-04-15T05:56:51;7.50;70.90
51661;DHT22;37741;49.748;8.490;2023-04-15T05:59:22;7.50;70.40
51661;DHT22;37741;49.748;8.490;2023-04-15T06:01:48;7.40;70.40
51661;DHT22;37741;49.748;8.490;2023-04-15T06:04:13;7.40;70.50
51661;DHT22;37741;49.748;8.490;2023-04-15T06:06:39;7.40;70.60
51661;DHT22;37741;49.748;8.490;2023-04-15T06:09:05;7.40;70.70
51661;DHT22;37741;49.748;8.490;2023-04-15T06:11:31;7.40;70.70
51661;DHT22;37741;49.748;8.490;2023-04-15T06:13:56;7.40;70.70
51661;DHT22;37741;49.748;8.490;2023-04-15T06:16:22;7.40;70.80
51661;DHT22;37741;49.748;8.490;2023-04-15T06:18:48;7.30;70.80
51661;DHT22;37741;49.748;8.490;2023-04-15T06:21:14;7.30;71.80
51661;DHT22;37741;49.748;8.490;2023-04-15T06:23:40;7.30;72.00
51661;DHT22;37741;49.748;8.490;2023-04-15T06:26:06;7.30;71.90
51661;DHT22;37741;49.748;8.490;2023-04-15T06:28:32;7.30;71.80
51661;DHT22;37741;49.748;8.490;2023-04-15T06:30:58;7.20;71.60
51661;DHT22;37741;49.748;8.490;2023-04-15T06:33:23;7.30;71.80
51661;DHT22;37741;49.748;8.490;2023-04-15T06:35:49;7.30;71.80
51661;DHT22;37741;49.748;8.490;2023-04-15T06:38:15;7.30;71.90
51661;DHT22;37741;49.748;8.490;2023-04-15T06:40:41;7.30;72.00
51661;DHT22;37741;49.748;8.490;2023-04-15T06:43:06;7.30;72.80
51661;DHT22;37741;49.748;8.490;2023-04-15T06:45:32;7.20;72.10
51661;DHT22;37741;49.748;8.490;2023-04-15T06:47:58;7.30;72.10
51661;DHT22;37741;49.748;8.490;2023-04-15T06:50:23;7.30;72.10
51661;DHT22;37741;49.748;8.490;2023-04-15T06:52:49;7.30;72.10
51661;DHT22;37741;49.748;8.490;2023-04-15T06:55:15;7.30;72.10
51661;DHT22;37741;49.748;8.490;2023-04-15T06:57:41;7.20;72.10
51661;DHT22;37741;49.748;8.490;2023-04-15T07:00:07;7.30;72.30
51661;DHT22;37741;49.748;8.490;2023-04-15T07:02:33;7.20;72.30
51661;DHT22;37741;49.748;8.490;2023-04-15T07:04:58;7.20;72.30
51661;DHT22;37741;49.748;8.490;2023-04-15T07:07:24;7.20;72.40
51661;DHT22;37741;49.748;8.490;2023-04-15T07:09:50;7.20;72.50
51661;DHT22;37741;49.748;8.490;2023-04-15T07:12:18;7.20;72.50
51661;DHT22;37741;49.748;8.490;2023-04-15T07:14:43;7.20;72.60
51661;DHT22;37741;49.748;8.490;2023-04-15T07:17:09;7.20;72.80
51661;DHT22;37741;49.748;8.490;2023-04-15T07:19:35;7.20;72.90
51661;DHT22;37741;49.748;8.490;2023-04-15T07:22:00;7.20;73.00
51661;DHT22;37741;49.748;8.490;2023-04-15T07:24:26;7.20;73.00
51661;DHT22;37741;49.748;8.490;2023-04-15T07:26:53;7.20;73.00
51661;DHT22;37741;49.748;8.490;2023-04-15T07:29:22;7.20;73.10
51661;DHT22;37741;49.748;8.490;2023-04-15T07:31:47;7.20;73.10
51661;DHT22;37741;49.748;8.490;2023-04-15T07:34:13;7.30;73.20
51661;DHT22;37741;49.748;8.490;2023-04-15T07:36:39;7.30;73.40
51661;DHT22;37741;49.748;8.490;2023-04-15T07:39:04;7.30;73.40
51661;DHT22;37741;49.748;8.490;2023-04-15T07:41:30;7.30;73.40
51661;DHT22;37741;49.748;8.490;2023-04-15T07:43:56;7.30;73.40
51661;DHT22;37741;49.748;8.490;2023-04-15T07:46:22;7.30;73.50
51661;DHT22;37741;49.748;8.490;2023-04-15T07:48:49;7.30;73.90
51661;DHT22;37741;49.748;8.490;2023-04-15T07:51:15;7.30;73.90
51661;DHT22;37741;49.748;8.490;2023-04-15T07:53:42;7.40;74.00
51661;DHT22;37741;49.748;8.490;2023-04-15T07:56:09;7.40;74.20
51661;DHT22;37741;49.748;8.490;2023-04-15T07:58:34;7.40;74.00
51661;DHT22;37741;49.748;8.490;2023-04-15T08:01:00;7.40;74.00
51661;DHT22;37741;49.748;8.490;2023-04-15T08:03:27;7.40;74.20
51661;DHT22;37741;49.748;8.490;2023-04-15T08:05:52;7.40;74.30
51661;DHT22;37741;49.748;8.490;2023-04-15T08:08:18;7.40;74.40
51661;DHT22;37741;49.748;8.490;2023-04-15T08:10:44;7.50;74.50
51661;DHT22;37741;49.748;8.490;2023-04-15T08:13:10;7.40;74.90
51661;DHT22;37741;49.748;8.490;2023-04-15T08:15:36;7.40;74.70
51661;DHT22;37741;49.748;8.490;2023-04-15T08:18:01;7.50;74.90
51661;DHT22;37741;49.748;8.490;2023-04-15T08:20:27;7.50;75.20
51661;DHT22;37741;49.748;8.490;2023-04-15T08:22:52;7.50;75.30
51661;DHT22;37741;49.748;8.490;2023-04-15T08:25:18;7.60;75.40
51661;DHT22;37741;49.748;8.490;2023-04-15T08:27:44;7.60;76.30
51661;DHT22;37741;49.748;8.490;2023-04-15T08:30:11;7.60;75.80
51661;DHT22;37741;49.748;8.490;2023-04-15T08:32:37;7.60;75.90
51661;DHT22;37741;49.748;8.490;2023-04-15T08:35:03;7.60;76.10
51661;DHT22;37741;49.748;8.490;2023-04-15T08:37:28;7.70;76.20
51661;DHT22;37741;49.748;8.490;2023-04-15T08:39:54;7.70;76.20
51661;DHT22;37741;49.748;8.490;2023-04-15T08:42:27;7.70;76.20
51661;DHT22;37741;49.748;8.490;2023-04-15T08:44:56;7.70;76.30
51661;DHT22;37741;49.748;8.490;2023-04-15T08:47:25;7.70;76.30
51661;DHT22;37741;49.748;8.490;2023-04-15T08:49:54;7.80;76.80
51661;DHT22;37741;49.748;8.490;2023-04-15T08:52:24;7.80;76.40
51661;DHT22;37741;49.748;8.490;2023-04-15T08:54:54;7.80;76.30
51661;DHT22;37741;49.748;8.490;2023-04-15T08:57:24;7.90;76.70
51661;DHT22;37741;49.748;8.490;2023-04-15T08:59:52;7.90;77.00
51661;DHT22;37741;49.748;8.490;2023-04-15T09:02:19;7.90;76.80
51661;DHT22;37741;49.748;8.490;2023-04-15T09:04:45;8.00;77.20
51661;DHT22;37741;49.748;8.490;2023-04-15T09:07:10;8.00;76.60
51661;DHT22;37741;49.748;8.490;2023-04-15T09:09:36;8.00;76.80
51661;DHT22;37741;49.748;8.490;2023-04-15T09:12:04;8.10;77.20
51661;DHT22;37741;49.748;8.490;2023-04-15T09:14:30;8.10;76.70
51661;DHT22;37741;49.748;8.490;2023-04-15T09:17:01;8.20;76.60
51661;DHT22;37741;49.748;8.490;2023-04-15T09:19:28;8.10;76.60
51661;DHT22;37741;49.748;8.490;2023-04-15T09:21:56;8.20;76.90
51661;DHT22;37741;49.748;8.490;2023-04-15T09:24:22;8.20;76.60
51661;DHT22;37741;49.748;8.490;2023-04-15T09:26:51;8.30;78.10
51661;DHT22;37741;49.748;8.490;2023-04-15T09:29:18;8.40;78.10
51661;DHT22;37741;49.748;8.490;2023-04-15T09:31:44;8.40;78.30
51661;DHT22;37741;49.748;8.490;2023-04-15T09:34:09;8.50;78.00
51661;DHT22;37741;49.748;8.490;2023-04-15T09:36:55;8.50;77.80
51661;DHT22;37741;49.748;8.490;2023-04-15T09:39:21;8.50;77.40
51661;DHT22;37741;49.748;8.490;2023-04-15T09:42:03;8.60;77.10
51661;DHT22;37741;49.748;8.490;2023-04-15T09:44:29;8.60;76.70
51661;DHT22;37741;49.748;8.490;2023-04-15T09:46:54;8.60;76.80
51661;DHT22;37741;49.748;8.490;2023-04-15T09:49:20;8.60;76.60
51661;DHT22;37741;49.748;8.490;2023-04-15T09:51:46;8.70;76.10
51661;DHT22;37741;49.748;8.490;2023-04-15T09:54:11;8.80;78.80
51661;DHT22;37741;49.748;8.490;2023-04-15T09:56:38;8.90;78.00
51661;DHT22;37741;49.748;8.490;2023-04-15T09:59:07;8.90;78.60
51661;DHT22;37741;49.748;8.490;2023-04-15T10:01:33;9.00;77.90
51661;DHT22;37741;49.748;8.490;2023-04-15T10:04:02;9.00;77.10
51661;DHT22;37741;49.748;8.490;2023-04-15T10:06:29;9.00;77.00
51661;DHT22;37741;49.748;8.490;2023-04-15T10:08:58;9.10;76.80
51661;DHT22;37741;49.748;8.490;2023-04-15T10:11:28;9.10;76.70
51661;DHT22;37741;49.748;8.490;2023-04-15T10:13:55;9.10;76.50
51661;DHT22;37741;49.748;8.490;2023-04-15T10:16:22;9.10;76.20
51661;DHT22;37741;49.748;8.490;2023-04-15T10:18:54;9.20;76.10
51661;DHT22;37741;49.748;8.490;2023-04-15T10:21:20;9.20;75.90
51661;DHT22;37741;49.748;8.490;2023-04-15T10:23:47;9.30;75.50
51661;DHT22;37741;49.748;8.490;2023-04-15T10:26:14;9.30;75.20
51661;DHT22;37741;49.748;8.490;2023-04-15T10:28:42;9.30;75.00
51661;DHT22;37741;49.748;8.490;2023-04-15T10:31:08;9.40;74.60
51661;DHT22;37741;49.748;8.490;2023-04-15T10:33:36;9.40;74.50
51661;DHT22;37741;49.748;8.490;2023-04-15T10:36:03;9.40;74.10
51661;DHT22;37741;49.748;8.490;2023-04-15T10:38:37;9.50;73.70
51661;DHT22;37741;49.748;8.490;2023-04-15T10:41:23;9.60;73.40
51661;DHT22;37741;49.748;8.490;2023-04-15T10:49:15;9.70;72.60
51661;DHT22;37741;49.748;8.490;2023-04-15T10:51:43;9.70;72.30
51661;DHT22;37741;49.748;8.490;2023-04-15T10:54:13;9.80;71.80
51661;DHT22;37741;49.748;8.490;2023-04-15T10:56:44;9.80;71.90
51661;DHT22;37741;49.748;8.490;2023-04-15T10:59:10;9.90;71.60
51661;DHT22;37741;49.748;8.490;2023-04-15T11:01:53;9.90;71.60
51661;DHT22;37741;49.748;8.490;2023-04-15T11:04:54;10.00;71.40
51661;DHT22;37741;49.748;8.490;2023-04-15T11:15:33;10.20;70.40
51661;DHT22;37741;49.748;8.490;2023-04-15T11:18:13;10.20;70.40
51661;DHT22;37741;49.748;8.490;2023-04-15T11:20:41;10.30;71.00
51661;DHT22;37741;49.748;8.490;2023-04-15T11:23:09;10.40;70.20
51661;DHT22;37741;49.748;8.490;2023-04-15T11:25:35;10.50;69.20
51661;DHT22;37741;49.748;8.490;2023-04-15T11:28:04;10.60;69.20
51661;DHT22;37741;49.748;8.490;2023-04-15T11:30:34;10.60;68.70
51661;DHT22;37741;49.748;8.490;2023-04-15T11:33:04;10.70;68.20
51661;DHT22;37741;49.748;8.490;2023-04-15T11:35:30;10.70;68.20
51661;DHT22;37741;49.748;8.490;2023-04-15T11:37:56;10.70;68.10
51661;DHT22;37741;49.748;8.490;2023-04-15T11:40:23;10.80;68.50
51661;DHT22;37741;49.748;8.490;2023-04-15T11:43:09;10.80;68.70
51661;DHT22;37741;49.748;8.490;2023-04-15T11:45:54;10.80;67.80
51661;DHT22;37741;49.748;8.490;2023-04-15T11:50:55;10.90;68.20
51661;DHT22;37741;49.748;8.490;2023-04-15T11:53:21;10.90;67.90
51661;DHT22;37741;49.748;8.490;2023-04-15T11:55:48;11.00;67.80
51661;DHT22;37741;49.748;8.490;2023-04-15T11:58:15;11.10;67.80
51661;DHT22;37741;49.748;8.490;2023-04-15T12:00:49;11.10;68.30
51661;DHT22;37741;49.748;8.490;2023-04-15T12:03:21;11.20;67.50
51661;DHT22;37741;49.748;8.490;2023-04-15T12:06:21;11.20;66.50
51661;DHT22;37741;49.748;8.490;2023-04-15T12:11:18;11.30;65.80
51661;DHT22;37741;49.748;8.490;2023-04-15T12:13:48;11.40;65.70
51661;DHT22;37741;49.748;8.490;2023-04-15T12:16:18;11.50;66.20
51661;DHT22;37741;49.748;8.490;2023-04-15T12:18:50;11.50;67.10
51661;DHT22;37741;49.748;8.490;2023-04-15T12:21:19;11.50;66.00
51661;DHT22;37741;49.748;8.490;2023-04-15T12:23:51;11.60;65.20
51661;DHT22;37741;49.748;8.490;2023-04-15T12:26:20;11.60;65.50
51661;DHT22;37741;49.748;8.490;2023-04-15T12:29:02;11.60;65.00
51661;DHT22;37741;49.748;8.490;2023-04-15T12:31:28;11.70;64.80
51661;DHT22;37741;49.748;8.490;2023-04-15T12:33:58;11.70;64.70
51661;DHT22;37741;49.748;8.490;2023-04-15T12:36:25;11.70;64.40
51661;DHT22;37741;49.748;8.490;2023-04-15T12:38:50;11.80;64.40
51661;DHT22;37741;49.748;8.490;2023-04-15T12:41:16;11.80;62.70
51661;DHT22;37741;49.748;8.490;2023-04-15T12:43:43;11.80;63.60
51661;DHT22;37741;49.748;8.490;2023-04-15T12:46:10;11.90;61.90
51661;DHT22;37741;49.748;8.490;2023-04-15T12:48:35;11.90;63.30
51661;DHT22;37741;49.748;8.490;2023-04-15T12:51:01;11.90;63.60
51661;DHT22;37741;49.748;8.490;2023-04-15T12:53:27;12.00;63.20
51661;DHT22;37741;49.748;8.490;2023-04-15T12:55:52;12.00;62.50
51661;DHT22;37741;49.748;8.490;2023-04-15T12:58:18;12.00;62.10
51661;DHT22;37741;49.748;8.490;2023-04-15T13:00:44;12.00;61.90
51661;DHT22;37741;49.748;8.490;2023-04-15T13:03:09;12.00;61.90
51661;DHT22;37741;49.748;8.490;2023-04-15T13:05:36;12.00;61.60
51661;DHT22;37741;49.748;8.490;2023-04-15T13:08:03;12.10;62.10
51661;DHT22;37741;49.748;8.490;2023-04-15T13:10:29;12.10;62.60
51661;DHT22;37741;49.748;8.490;2023-04-15T13:12:55;12.10;62.20
51661;DHT22;37741;49.748;8.490;2023-04-15T13:15:22;12.20;62.20
51661;DHT22;37741;49.748;8.490;2023-04-15T13:17:48;12.20;62.80
51661;DHT22;37741;49.748;8.490;2023-04-15T13:20:14;12.20;62.60
51661;DHT22;37741;49.748;8.490;2023-04-15T13:22:40;12.20;62.90
51661;DHT22;37741;49.748;8.490;2023-04-15T13:25:06;12.20;63.90
51661;DHT22;37741;49.748;8.490;2023-04-15T13:27:32;12.20;63.80
51661;DHT22;37741;49.748;8.490;2023-04-15T13:29:58;12.20;63.70
51661;DHT22;37741;49.748;8.490;2023-04-15T13:32:24;12.30;63.90
51661;DHT22;37741;49.748;8.490;2023-04-15T13:34:50;12.30;64.20
51661;DHT22;37741;49.748;8.490;2023-04-15T13:37:16;12.40;64.30
51661;DHT22;37741;49.748;8.490;2023-04-15T13:39:41;12.40;64.40
51661;DHT22;37741;49.748;8.490;2023-04-15T13:42:07;12.40;64.40
51661;DHT22;37741;49.748;8.490;2023-04-15T13:44:33;12.40;64.60
51661;DHT22;37741;49.748;8.490;2023-04-15T13:46:59;12.50;64.80
51661;DHT22;37741;49.748;8.490;2023-04-15T13:49:26;12.50;65.00
51661;DHT22;37741;49.748;8.490;2023-04-15T13:51:51;12.50;65.30
51661;DHT22;37741;49.748;8.490;2023-04-15T13:54:17;12.50;65.40
51661;DHT22;37741;49.748;8.490;2023-04-15T13:56:42;12.60;65.90
51661;DHT22;37741;49.748;8.490;2023-04-15T13:59:08;12.50;66.20
51661;DHT22;37741;49.748;8.490;2023-04-15T14:01:34;12.60;66.30
51661;DHT22;37741;49.748;8.490;2023-04-15T14:04:00;12.60;65.90
51661;DHT22;37741;49.748;8.490;2023-04-15T14:06:26;12.50;67.20
51661;DHT22;37741;49.748;8.490;2023-04-15T14:08:53;12.60;67.00
51661;DHT22;37741;49.748;8.490;2023-04-15T14:11:19;12.60;67.70
51661;DHT22;37741;49.748;8.490;2023-04-15T14:13:45;12.50;68.30
51661;DHT22;37741;49.748;8.490;2023-04-15T14:16:10;12.50;70.90
51661;DHT22;37741;49.748;8.490;2023-04-15T14:18:36;12.60;73.20
51661;DHT22;37741;49.748;8.490;2023-04-15T14:21:04;12.50;71.60
51661;DHT22;37741;49.748;8.490;2023-04-15T14:23:30;12.50;69.50
51661;DHT22;37741;49.748;8.490;2023-04-15T14:25:56;12.50;69.40
51661;DHT22;37741;49.748;8.490;2023-04-15T14:28:23;12.50;69.30
51661;DHT22;37741;49.748;8.490;2023-04-15T14:30:48;12.50;70.40
51661;DHT22;37741;49.748;8.490;2023-04-15T14:33:14;12.50;71.70
51661;DHT22;37741;49.748;8.490;2023-04-15T14:35:40;12.50;71.40
51661;DHT22;37741;49.748;8.490;2023-04-15T14:38:06;12.50;70.90
51661;DHT22;37741;49.748;8.490;2023-04-15T14:40:35;12.50;70.30
51661;DHT22;37741;49.748;8.490;2023-04-15T14:43:00;12.50;73.00
51661;DHT22;37741;49.748;8.490;2023-04-15T14:45:26;12.50;72.70
51661;DHT22;37741;49.748;8.490;2023-04-15T14:47:52;12.50;71.80
51661;DHT22;37741;49.748;8.490;2023-04-15T14:50:18;12.50;71.00
51661;DHT22;37741;49.748;8.490;2023-04-15T14:52:43;12.50;71.20
51661;DHT22;37741;49.748;8.490;2023-04-15T14:55:10;12.50;72.60
51661;DHT22;37741;49.748;8.490;2023-04-15T14:57:37;12.50;72.10
51661;DHT22;37741;49.748;8.490;2023-04-15T15:00:04;12.50;71.90
51661;DHT22;37741;49.748;8.490;2023-04-15T15:02:31;12.50;71.40
51661;DHT22;37741;49.748;8.490;2023-04-15T15:04:58;12.50;72.00
51661;DHT22;37741;49.748;8.490;2023-04-15T15:07:23;12.50;71.40
51661;DHT22;37741;49.748;8.490;2023-04-15T15:09:49;12.50;71.70
51661;DHT22;37741;49.748;8.490;2023-04-15T15:12:14;12.40;71.60
51661;DHT22;37741;49.748;8.490;2023-04-15T15:14:40;12.40;71.40
51661;DHT22;37741;49.748;8.490;2023-04-15T15:17:06;12.40;71.80
51661;DHT22;37741;49.748;8.490;2023-04-15T15:19:32;12.40;72.00
51661;DHT22;37741;49.748;8.490;2023-04-15T15:21:57;12.40;71.90
51661;DHT22;37741;49.748;8.490;2023-04-15T15:24:23;12.40;71.90
51661;DHT22;37741;49.748;8.490;2023-04-15T15:26:49;12.40;71.50
51661;DHT22;37741;49.748;8.490;2023-04-15T15:29:14;12.40;72.40
51661;DHT22;37741;49.748;8.490;2023-04-15T15:31:40;12.40;72.10
51661;DHT22;37741;49.748;8.490;2023-04-15T15:34:06;12.40;72.10
51661;DHT22;37741;49.748;8.490;2023-04-15T15:36:31;12.40;72.10
51661;DHT22;37741;49.748;8.490;2023-04-15T15:38:57;12.40;71.60
51661;DHT22;37741;49.748;8.490;2023-04-15T15:41:23;12.40;71.90
51661;DHT22;37741;49.748;8.490;2023-04-15T15:43:50;12.40;71.70
51661;DHT22;37741;49.748;8.490;2023-04-15T15:46:16;12.30;72.50
51661;DHT22;37741;49.748;8.490;2023-04-15T15:48:42;12.30;73.20
51661;DHT22;37741;49.748;8.490;2023-04-15T15:51:08;12.30;73.00
51661;DHT22;37741;49.748;8.490;2023-04-15T15:53:35;12.30;73.40
51661;DHT22;37741;49.748;8.490;2023-04-15T15:56:01;12.30;72.90